Time;durP1;ratioP1;P1;durP2;ratioP2;P2;SDS_P1;SDS_P2;PMS_P1;PMS_P2;Temp;Humidity;BMP_temperature;BMP_pressure;BME280_temperature;BME280_humidity;BME280_pressure;Samples;Min_cycle;Max_cycle;Signal;HPM_P1;HPM_P2
2023/08/13 00:02:21;;;;;;;10.55;4.30;;;;;;;-148.88;100.00;-17125.47;5073145;28;20055;-87
2023/08/13 00:04:46;;;;;;;10.57;4.07;;;;;;;-148.88;100.00;-17125.47;5073104;28;20020;-87
2023/08/13 00:07:12;;;;;;;10.63;4.30;;;;;;;-148.88;100.00;-17125.47;5075199;28;20086;-88
2023/08/13 00:09:37;;;;;;;9.90;4.28;;;;;;;-148.88;100.00;-17125.47;5061714;23;20071;-87
2023/08/13 00:12:03;;;;;;;8.07;4.00;;;;;;;-148.88;100.00;-17125.47;5032859;28;20464;-87
2023/08/13 00:14:29;;;;;;;11.20;4.50;;;;;;;-148.88;100.00;-17125.47;5032677;28;20026;-87
2023/08/13 00:16:54;;;;;;;15.18;4.70;;;;;;;-148.88;100.00;-17125.47;5032648;28;20021;-87
2023/08/13 00:19:20;;;;;;;9.57;4.28;;;;;;;-148.88;100.00;-17125.47;5032370;28;20055;-87
2023/08/13 00:21:45;;;;;;;10.48;4.35;;;;;;;-148.88;100.00;-17125.47;5032673;28;20498;-87
2023/08/13 00:24:11;;;;;;;9.77;4.05;;;;;;;-148.88;100.00;-17125.47;5032757;28;20349;-87
2023/08/13 00:26:37;;;;;;;9.32;4.18;;;;;;;-148.88;100.00;-17125.47;5032625;28;20112;-87
2023/08/13 00:29:04;;;;;;;8.70;3.95;;;;;;;-148.88;100.00;-17125.47;5032831;28;20557;-88
2023/08/13 00:31:29;;;;;;;11.93;4.00;;;;;;;-148.88;100.00;-17125.47;5032709;28;20030;-88
2023/08/13 00:33:54;;;;;;;9.60;4.18;;;;;;;-148.88;100.00;-17125.47;5032528;28;20028;-87
2023/08/13 00:36:20;;;;;;;11.82;3.90;;;;;;;-148.88;100.00;-17125.47;5032230;28;20075;-87
2023/08/13 00:38:45;;;;;;;9.20;3.83;;;;;;;-148.88;100.00;-17125.47;5032340;28;20191;-87
2023/08/13 00:41:11;;;;;;;12.10;4.40;;;;;;;-148.88;100.00;-17125.47;5032122;28;20029;-87
2023/08/13 00:43:37;;;;;;;7.78;4.05;;;;;;;-148.88;100.00;-17125.47;5032210;28;20017;-87
2023/08/13 00:46:03;;;;;;;10.35;4.28;;;;;;;-148.88;100.00;-17125.47;5032431;28;20033;-87
2023/08/13 00:48:29;;;;;;;14.75;4.88;;;;;;;-148.88;100.00;-17125.47;5032034;28;20036;-88
2023/08/13 00:50:55;;;;;;;7.90;3.80;;;;;;;-148.88;100.00;-17125.47;5032101;28;20029;-87
2023/08/13 00:53:20;;;;;;;8.95;4.55;;;;;;;-148.88;100.00;-17125.47;5031952;28;20025;-88
2023/08/13 00:55:46;;;;;;;8.75;4.57;;;;;;;-148.88;100.00;-17125.47;5032397;28;20017;-87
2023/08/13 00:58:12;;;;;;;8.93;4.35;;;;;;;-148.88;100.00;-17125.47;5051677;28;20034;-89
2023/08/13 01:00:38;;;;;;;10.40;4.47;;;;;;;-148.88;100.00;-17125.47;5058563;28;20041;-87
2023/08/13 01:03:03;;;;;;;10.77;5.03;;;;;;;-148.88;100.00;-17125.47;5050785;28;20041;-87
2023/08/13 01:05:43;;;;;;;7.65;4.75;;;;;;;-148.88;100.00;-17125.47;5032053;28;20028;-87
2023/08/13 01:08:23;;;;;;;11.70;5.72;;;;;;;-148.88;100.00;-17125.47;5031868;28;20061;-87
2023/08/13 01:10:57;;;;;;;12.68;6.05;;;;;;;-148.88;100.00;-17125.47;5032028;28;20021;-87
2023/08/13 01:13:37;;;;;;;12.68;5.88;;;;;;;-148.88;100.00;-17125.47;5031803;28;20103;-88
2023/08/13 01:16:05;;;;;;;9.90;6.22;;;;;;;-148.88;100.00;-17125.47;5032687;28;20029;-87
2023/08/13 01:18:33;;;;;;;10.23;5.60;;;;;;;-148.88;100.00;-17125.47;5031743;28;20025;-88
2023/08/13 01:20:58;;;;;;;11.48;6.13;;;;;;;-148.88;100.00;-17125.47;5031861;28;20022;-87
2023/08/13 01:23:24;;;;;;;16.55;7.22;;;;;;;-148.88;100.00;-17125.47;5031690;28;20502;-88
2023/08/13 01:25:58;;;;;;;12.70;6.60;;;;;;;-148.88;100.00;-17125.47;5031566;28;20116;-87
2023/08/13 01:28:37;;;;;;;16.00;7.68;;;;;;;-148.88;100.00;-17125.47;5031692;28;20031;-87
2023/08/13 01:31:14;;;;;;;14.35;8.48;;;;;;;-148.88;100.00;-17125.47;5032048;28;20502;-87
2023/08/13 01:33:42;;;;;;;16.48;8.80;;;;;;;-148.88;100.00;-17125.47;5031574;28;20120;-87
2023/08/13 01:36:08;;;;;;;21.42;10.15;;;;;;;-148.88;100.00;-17125.47;5032368;28;20017;-87
2023/08/13 01:38:34;;;;;;;14.88;9.57;;;;;;;-148.88;100.00;-17125.47;5031695;28;20021;-86
2023/08/13 01:41:00;;;;;;;16.50;9.63;;;;;;;-148.88;100.00;-17125.47;5031750;28;20025;-86
2023/08/13 01:43:26;;;;;;;16.92;9.52;;;;;;;-148.88;100.00;-17125.47;5031851;28;20021;-87
2023/08/13 01:45:52;;;;;;;16.45;9.55;;;;;;;-148.88;100.00;-17125.47;5032316;28;20028;-87
2023/08/13 01:48:17;;;;;;;15.27;9.52;;;;;;;-148.88;100.00;-17125.47;5031472;28;20544;-86
2023/08/13 01:50:43;;;;;;;15.27;9.52;;;;;;;-148.88;100.00;-17125.47;5032375;28;20120;-87
2023/08/13 01:53:08;;;;;;;18.92;10.27;;;;;;;-148.88;100.00;-17125.47;5031770;28;20109;-86
2023/08/13 01:55:34;;;;;;;16.27;9.82;;;;;;;-148.88;100.00;-17125.47;5031516;28;20116;-85
2023/08/13 01:57:59;;;;;;;15.20;10.32;;;;;;;-148.88;100.00;-17125.47;5031495;28;20443;-87
2023/08/13 02:00:25;;;;;;;17.48;10.25;;;;;;;-148.88;100.00;-17125.47;5034101;28;20025;-87
2023/08/13 02:02:50;;;;;;;15.30;9.80;;;;;;;-148.88;100.00;-17125.47;5035339;28;20032;-87
2023/08/13 02:05:16;;;;;;;15.20;9.52;;;;;;;-148.88;100.00;-17125.47;5035002;28;20025;-87
2023/08/13 02:07:41;;;;;;;18.27;10.50;;;;;;;-148.88;100.00;-17125.47;5035203;28;20033;-88
2023/08/13 02:10:06;;;;;;;18.38;10.88;;;;;;;-148.88;100.00;-17125.47;5034849;28;20075;-87
2023/08/13 02:12:32;;;;;;;16.15;10.38;;;;;;;-148.88;100.00;-17125.47;5034681;28;20042;-86
2023/08/13 02:14:58;;;;;;;16.13;10.82;;;;;;;-148.88;100.00;-17125.47;5034844;28;20022;-87
2023/08/13 02:17:24;;;;;;;20.30;10.80;;;;;;;-148.88;100.00;-17125.47;5034806;28;20029;-87
2023/08/13 02:19:49;;;;;;;16.17;10.60;;;;;;;-148.88;100.00;-17125.47;5034876;28;20396;-87
2023/08/13 02:22:14;;;;;;;15.48;10.07;;;;;;;-148.88;100.00;-17125.47;5034584;28;20057;-88
2023/08/13 02:24:40;;;;;;;12.70;10.10;;;;;;;-148.88;100.00;-17125.47;5034917;28;20028;-87
2023/08/13 02:27:05;;;;;;;14.90;9.95;;;;;;;-148.88;100.00;-17125.47;5034587;28;20022;-87
2023/08/13 02:29:31;;;;;;;14.32;9.75;;;;;;;-148.88;100.00;-17125.47;5034822;28;20024;-87
2023/08/13 02:31:56;;;;;;;15.52;10.40;;;;;;;-148.88;100.00;-17125.47;5035221;28;20041;-88
2023/08/13 02:34:23;;;;;;;12.60;9.77;;;;;;;-148.88;100.00;-17125.47;5034420;28;20033;-87
2023/08/13 02:36:49;;;;;;;15.60;9.20;;;;;;;-148.88;100.00;-17125.47;5034453;28;20025;-87
2023/08/13 02:39:14;;;;;;;15.88;9.90;;;;;;;-148.88;100.00;-17125.47;5034229;28;20032;-87
2023/08/13 02:41:39;;;;;;;13.68;9.60;;;;;;;-148.88;100.00;-17125.47;5034681;28;20374;-87
2023/08/13 02:44:05;;;;;;;13.20;9.48;;;;;;;-148.88;100.00;-17125.47;5035802;28;20014;-85
2023/08/13 02:46:30;;;;;;;13.35;9.68;;;;;;;-148.88;100.00;-17125.47;5034870;28;20026;-87
2023/08/13 02:48:55;;;;;;;14.65;10.32;;;;;;;-148.88;100.00;-17125.47;5034239;28;20400;-87
2023/08/13 02:51:22;;;;;;;18.58;11.40;;;;;;;-148.88;100.00;-17125.47;5034094;28;20033;-87
2023/08/13 02:53:47;;;;;;;16.85;10.73;;;;;;;-148.88;100.00;-17125.47;5034182;28;20108;-87
2023/08/13 02:56:13;;;;;;;20.27;11.45;;;;;;;-148.88;100.00;-17125.47;5034080;28;20074;-87
2023/08/13 02:58:38;;;;;;;15.60;9.45;;;;;;;-148.88;100.00;-17125.47;5034123;28;20477;-87
2023/08/13 03:01:04;;;;;;;16.10;10.15;;;;;;;-148.88;100.00;-17125.47;5033983;28;20104;-86
2023/08/13 03:03:30;;;;;;;13.88;10.07;;;;;;;-148.88;100.00;-17125.47;5034033;28;20103;-87
2023/08/13 03:05:56;;;;;;;15.23;11.00;;;;;;;-148.88;100.00;-17125.47;5033886;28;20108;-87
2023/08/13 03:08:21;;;;;;;18.52;11.38;;;;;;;-148.88;100.00;-17125.47;5033592;28;20132;-87
2023/08/13 03:10:47;;;;;;;15.93;11.45;;;;;;;-148.88;100.00;-17125.47;5032765;28;20029;-86
2023/08/13 03:13:12;;;;;;;16.80;11.07;;;;;;;-148.88;100.00;-17125.47;5033694;28;20400;-88
2023/08/13 03:15:37;;;;;;;16.20;11.23;;;;;;;-148.88;100.00;-17125.47;5034008;28;20120;-87
2023/08/13 03:18:03;;;;;;;18.65;11.20;;;;;;;-148.88;100.00;-17125.47;5033783;28;20060;-87
2023/08/13 03:20:28;;;;;;;14.18;10.80;;;;;;;-148.88;100.00;-17125.47;5033494;28;20110;-87
2023/08/13 03:22:54;;;;;;;14.40;10.98;;;;;;;-148.88;100.00;-17125.47;5033500;28;20083;-87
2023/08/13 03:25:19;;;;;;;16.23;10.85;;;;;;;-148.88;100.00;-17125.47;5033545;28;20404;-87
2023/08/13 03:27:46;;;;;;;16.30;11.73;;;;;;;-148.88;100.00;-17125.47;5033432;28;20140;-89
2023/08/13 03:30:11;;;;;;;16.42;11.98;;;;;;;-148.88;100.00;-17125.47;5033435;28;20117;-87
2023/08/13 03:32:37;;;;;;;15.68;11.63;;;;;;;-148.88;100.00;-17125.47;5033341;28;20554;-88
2023/08/13 03:35:02;;;;;;;17.90;11.52;;;;;;;-148.88;100.00;-17125.47;5033358;28;20033;-88
2023/08/13 03:37:28;;;;;;;16.85;11.82;;;;;;;-148.88;100.00;-17125.47;5033300;28;20490;-88
2023/08/13 03:39:53;;;;;;;20.17;12.25;;;;;;;-148.88;100.00;-17125.47;5033328;28;20021;-88
2023/08/13 03:42:19;;;;;;;14.00;11.57;;;;;;;-148.88;100.00;-17125.47;5034118;28;20422;-88
2023/08/13 03:44:44;;;;;;;21.70;12.27;;;;;;;-148.88;100.00;-17125.47;5033132;28;20022;-88
2023/08/13 03:47:10;;;;;;;16.25;11.20;;;;;;;-148.88;100.00;-17125.47;5033134;28;20428;-90
2023/08/13 03:49:35;;;;;;;20.25;11.68;;;;;;;-148.88;100.00;-17125.47;5033053;28;20029;-88
2023/08/13 03:52:01;;;;;;;16.77;12.45;;;;;;;-148.88;100.00;-17125.47;5032921;28;20048;-88
2023/08/13 03:54:26;;;;;;;18.35;13.55;;;;;;;-148.88;100.00;-17125.47;5032946;28;20476;-89
2023/08/13 03:56:51;;;;;;;19.38;12.82;;;;;;;-148.88;100.00;-17125.47;5033026;28;20373;-88
2023/08/13 03:59:17;;;;;;;19.35;13.68;;;;;;;-148.88;100.00;-17125.47;5032981;28;20125;-89
2023/08/13 04:01:43;;;;;;;17.42;12.98;;;;;;;-148.88;100.00;-17125.47;5033818;28;20530;-89
2023/08/13 04:04:08;;;;;;;20.05;13.38;;;;;;;-148.88;100.00;-17125.47;5035007;28;20060;-88
2023/08/13 04:06:33;;;;;;;19.70;13.32;;;;;;;-148.88;100.00;-17125.47;5032600;28;20125;-88
2023/08/13 04:08:59;;;;;;;18.80;13.32;;;;;;;-148.88;100.00;-17125.47;5032360;28;20392;-88
2023/08/13 04:11:25;;;;;;;16.52;12.20;;;;;;;-148.88;100.00;-17125.47;5032814;28;20021;-89
2023/08/13 04:13:50;;;;;;;17.65;12.75;;;;;;;-148.88;100.00;-17125.47;5032692;28;20026;-88
2023/08/13 04:16:16;;;;;;;20.95;12.45;;;;;;;-148.88;100.00;-17125.47;5032248;28;20053;-87
2023/08/13 04:18:41;;;;;;;15.30;11.82;;;;;;;-148.88;100.00;-17125.47;5033320;28;20025;-87
2023/08/13 04:21:07;;;;;;;21.05;12.80;;;;;;;-148.88;100.00;-17125.47;5033258;28;20031;-89
2023/08/13 04:23:32;;;;;;;17.55;12.07;;;;;;;-148.88;100.00;-17125.47;5031885;28;20092;-88
2023/08/13 04:25:58;;;;;;;17.75;12.10;;;;;;;-148.88;100.00;-17125.47;5031851;28;20029;-90
2023/08/13 04:28:23;;;;;;;22.63;12.13;;;;;;;-148.88;100.00;-17125.47;5031765;28;20033;-89
2023/08/13 04:30:49;;;;;;;17.42;11.98;;;;;;;-148.88;100.00;-17125.47;5031721;28;20033;-87
2023/08/13 04:33:14;;;;;;;18.77;11.75;;;;;;;-148.88;100.00;-17125.47;5031665;28;20025;-88
2023/08/13 04:35:39;;;;;;;17.05;11.10;;;;;;;-148.88;100.00;-17125.47;5031739;28;20058;-87
2023/08/13 04:38:05;;;;;;;16.33;11.63;;;;;;;-148.88;100.00;-17125.47;5031787;28;20037;-87
2023/08/13 04:40:30;;;;;;;20.38;11.73;;;;;;;-148.88;100.00;-17125.47;5031759;28;20492;-87
2023/08/13 04:42:56;;;;;;;17.83;10.75;;;;;;;-148.88;100.00;-17125.47;5033105;28;20097;-87
2023/08/13 04:45:21;;;;;;;16.80;10.85;;;;;;;-148.88;100.00;-17125.47;5032388;28;20021;-87
2023/08/13 04:47:47;;;;;;;17.48;10.85;;;;;;;-148.88;100.00;-17125.47;5031531;28;20022;-87
2023/08/13 04:50:13;;;;;;;17.77;11.35;;;;;;;-148.88;100.00;-17125.47;5033423;28;20029;-87
2023/08/13 04:52:39;;;;;;;22.30;10.95;;;;;;;-148.88;100.00;-17125.47;5031367;28;20051;-87
2023/08/13 04:55:07;;;;;;;11.88;9.75;;;;;;;-148.88;100.00;-17125.47;5033104;28;20021;-87
2023/08/13 04:57:32;;;;;;;17.40;10.40;;;;;;;-148.88;100.00;-17125.47;5031425;28;20022;-87
2023/08/13 04:59:59;;;;;;;13.00;9.23;;;;;;;-148.88;100.00;-17125.47;5031790;28;20531;-87
2023/08/13 05:02:24;;;;;;;15.80;10.50;;;;;;;-148.88;100.00;-17125.47;5032344;28;20028;-88
2023/08/13 05:04:49;;;;;;;15.68;10.60;;;;;;;-148.88;100.00;-17125.47;5031665;28;20108;-87
2023/08/13 05:07:15;;;;;;;16.23;9.90;;;;;;;-148.88;100.00;-17125.47;5031265;28;20369;-89
2023/08/13 05:09:40;;;;;;;15.10;10.73;;;;;;;-148.88;100.00;-17125.47;5031197;28;20036;-88
2023/08/13 05:12:12;;;;;;;19.60;10.52;;;;;;;-148.88;100.00;-17125.47;5031590;28;20071;-89
2023/08/13 05:14:37;;;;;;;19.38;10.07;;;;;;;-148.88;100.00;-17125.47;5031508;28;20022;-89
2023/08/13 05:17:16;;;;;;;19.23;10.98;;;;;;;-148.88;100.00;-17125.47;5031453;28;20025;-89
2023/08/13 05:19:41;;;;;;;16.80;9.93;;;;;;;-148.88;100.00;-17125.47;5031256;28;20484;-88
2023/08/13 05:22:07;;;;;;;18.95;10.50;;;;;;;-148.88;100.00;-17125.47;5031198;28;20049;-88
2023/08/13 05:24:32;;;;;;;13.10;9.70;;;;;;;-148.88;100.00;-17125.47;5031231;28;20029;-88
2023/08/13 05:26:57;;;;;;;15.65;10.05;;;;;;;-148.88;100.00;-17125.47;5031185;28;20025;-87
2023/08/13 05:29:23;;;;;;;15.68;9.82;;;;;;;-148.88;100.00;-17125.47;5032887;28;20045;-86
2023/08/13 05:31:48;;;;;;;15.80;10.10;;;;;;;-148.88;100.00;-17125.47;5032728;28;20044;-86
2023/08/13 05:34:13;;;;;;;15.70;9.68;;;;;;;-148.88;100.00;-17125.47;5033408;28;20022;-86
2023/08/13 05:36:39;;;;;;;13.35;9.07;;;;;;;-148.88;100.00;-17125.47;5036401;28;20514;-85
2023/08/13 05:39:07;;;;;;;16.02;10.48;;;;;;;-148.88;100.00;-17125.47;5035475;28;20121;-85
2023/08/13 05:41:32;;;;;;;18.85;10.40;;;;;;;-148.88;100.00;-17125.47;5035159;28;20022;-86
2023/08/13 05:43:59;;;;;;;16.27;9.68;;;;;;;-148.88;100.00;-17125.47;5035182;28;20113;-85
2023/08/13 05:46:24;;;;;;;14.35;9.75;;;;;;;-148.88;100.00;-17125.47;5035811;28;20029;-85
2023/08/13 05:48:50;;;;;;;17.08;10.30;;;;;;;-148.88;100.00;-17125.47;5036304;28;20033;-86
2023/08/13 05:51:15;;;;;;;15.85;10.00;;;;;;;-148.88;100.00;-17125.47;5036110;28;20025;-86
2023/08/13 05:53:40;;;;;;;17.33;9.60;;;;;;;-148.88;100.00;-17125.47;5034829;28;20392;-86
2023/08/13 05:56:06;;;;;;;17.88;9.60;;;;;;;-148.88;100.00;-17125.47;5035226;28;20032;-86
2023/08/13 05:58:31;;;;;;;13.10;9.43;;;;;;;-148.88;100.00;-17125.47;5034674;28;20070;-86
2023/08/13 06:00:57;;;;;;;15.02;9.20;;;;;;;-148.88;100.00;-17125.47;5034659;28;20033;-85
2023/08/13 06:03:22;;;;;;;17.10;9.10;;;;;;;-148.88;100.00;-17125.47;5034699;28;20629;-85
2023/08/13 06:05:49;;;;;;;17.88;8.98;;;;;;;-148.88;100.00;-17125.47;5037246;28;20032;-86
2023/08/13 06:08:14;;;;;;;14.13;8.07;;;;;;;-148.88;100.00;-17125.47;5034401;28;20506;-86
2023/08/13 06:10:40;;;;;;;13.18;8.07;;;;;;;-148.88;100.00;-17125.47;5034592;28;20029;-85
2023/08/13 06:13:08;;;;;;;11.52;7.07;;;;;;;-148.88;100.00;-17125.47;5034369;28;20169;-86
2023/08/13 06:15:34;;;;;;;14.73;7.57;;;;;;;-148.88;100.00;-17125.47;5036404;28;20036;-86
2023/08/13 06:17:59;;;;;;;15.52;7.05;;;;;;;-148.88;100.00;-17125.47;5037117;28;20025;-86
2023/08/13 06:20:24;;;;;;;12.40;7.07;;;;;;;-148.88;100.00;-17125.47;5036124;28;20049;-85
2023/08/13 06:22:50;;;;;;;16.23;6.97;;;;;;;-148.88;100.00;-17125.47;5034953;28;20013;-86
2023/08/13 06:25:15;;;;;;;12.43;7.15;;;;;;;-148.88;100.00;-17125.47;5034959;28;20074;-86
2023/08/13 06:27:43;;;;;;;15.55;6.03;;;;;;;-148.88;100.00;-17125.47;5035872;28;20032;-87
2023/08/13 06:30:09;;;;;;;15.23;6.13;;;;;;;-148.88;100.00;-17125.47;5037333;28;20079;-85
2023/08/13 06:32:37;;;;;;;13.48;6.22;;;;;;;-148.88;100.00;-17125.47;5034509;28;20080;-85
2023/08/13 06:35:02;;;;;;;11.80;5.80;;;;;;;-148.88;100.00;-17125.47;5034654;28;20026;-85
2023/08/13 06:37:27;;;;;;;13.77;4.68;;;;;;;-148.88;100.00;-17125.47;5037066;28;20032;-85
2023/08/13 06:39:53;;;;;;;10.57;4.28;;;;;;;-148.88;100.00;-17125.47;5038489;28;20092;-85
2023/08/13 06:42:21;;;;;;;10.63;3.97;;;;;;;-148.88;100.00;-17125.47;5038731;28;20025;-85
2023/08/13 06:44:46;;;;;;;7.70;3.92;;;;;;;-148.88;100.00;-17125.47;5036049;28;20049;-84
2023/08/13 06:47:12;;;;;;;13.75;4.50;;;;;;;-148.88;100.00;-17125.47;5035559;28;20396;-84
2023/08/13 06:49:38;;;;;;;14.25;4.25;;;;;;;-148.88;100.00;-17125.47;5033943;28;20029;-84
2023/08/13 06:52:04;;;;;;;10.27;4.25;;;;;;;-148.88;100.00;-17125.47;5033709;28;20469;-84
2023/08/13 06:54:29;;;;;;;8.57;4.10;;;;;;;-148.88;100.00;-17125.47;5035553;28;20048;-84
2023/08/13 06:56:54;;;;;;;10.38;4.43;;;;;;;-148.88;100.00;-17125.47;5035857;28;20025;-85
2023/08/13 06:59:20;;;;;;;8.50;4.07;;;;;;;-148.88;100.00;-17125.47;5034307;28;20124;-85
2023/08/13 07:01:45;;;;;;;12.05;4.72;;;;;;;-148.88;100.00;-17125.47;5033965;28;20124;-85
2023/08/13 07:04:11;;;;;;;14.63;4.40;;;;;;;-148.88;100.00;-17125.47;5034080;28;20540;-84
2023/08/13 07:06:36;;;;;;;10.05;3.95;;;;;;;-148.88;100.00;-17125.47;5033718;28;20443;-85
2023/08/13 07:09:08;;;;;;;9.02;3.88;;;;;;;-148.88;100.00;-17125.47;5033846;28;20029;-87
2023/08/13 07:11:34;;;;;;;11.77;4.53;;;;;;;-148.88;100.00;-17125.47;5035136;28;20550;-85
2023/08/13 07:14:03;;;;;;;10.25;4.70;;;;;;;-148.88;100.00;-17125.47;5033806;28;20026;-85
2023/08/13 07:16:29;;;;;;;10.18;4.45;;;;;;;-148.88;100.00;-17125.47;5034662;28;20060;-85
2023/08/13 07:18:54;;;;;;;12.02;4.40;;;;;;;-148.88;100.00;-17125.47;5035914;28;20038;-85
2023/08/13 07:21:20;;;;;;;9.73;4.00;;;;;;;-148.88;100.00;-17125.47;5035408;28;20029;-85
2023/08/13 07:23:45;;;;;;;9.68;4.22;;;;;;;-148.88;100.00;-17125.47;5034108;28;20025;-85
2023/08/13 07:26:10;;;;;;;9.85;4.00;;;;;;;-148.88;100.00;-17125.47;5034032;28;20408;-84
2023/08/13 07:28:38;;;;;;;12.23;3.88;;;;;;;-148.88;100.00;-17125.47;5034953;28;20445;-86
2023/08/13 07:31:04;;;;;;;8.10;4.07;;;;;;;-148.88;100.00;-17125.47;5033553;28;20040;-85
2023/08/13 07:33:31;;;;;;;9.55;3.97;;;;;;;-148.88;100.00;-17125.47;5039029;28;20025;-85
2023/08/13 07:35:58;;;;;;;10.10;3.97;;;;;;;-148.88;100.00;-17125.47;5037863;28;20029;-87
2023/08/13 07:38:30;;;;;;;9.07;3.53;;;;;;;-148.88;100.00;-17125.47;5035325;28;20118;-86
2023/08/13 07:40:56;;;;;;;9.43;3.40;;;;;;;-148.88;100.00;-17125.47;5037593;28;20028;-85
2023/08/13 07:43:23;;;;;;;12.45;3.60;;;;;;;-148.88;100.00;-17125.47;5035884;28;20396;-86
2023/08/13 07:45:48;;;;;;;13.73;3.33;;;;;;;-148.88;100.00;-17125.47;5035277;28;20028;-86
2023/08/13 07:48:17;;;;;;;7.38;2.97;;;;;;;-148.88;100.00;-17125.47;5037153;28;20029;-85
2023/08/13 07:50:50;;;;;;;8.40;2.60;;;;;;;-148.88;100.00;-17125.47;5036083;28;20025;-85
2023/08/13 07:53:16;;;;;;;6.15;3.00;;;;;;;-148.88;100.00;-17125.47;5035456;28;20495;-86
2023/08/13 07:55:41;;;;;;;9.27;3.08;;;;;;;-148.88;100.00;-17125.47;5034665;28;20029;-86
2023/08/13 07:58:09;;;;;;;7.60;2.90;;;;;;;-148.88;100.00;-17125.47;5032714;28;20024;-87
2023/08/13 08:00:51;;;;;;;8.85;2.67;;;;;;;-148.88;100.00;-17125.47;5033696;28;20030;-84
2023/08/13 08:03:16;;;;;;;6.82;2.70;;;;;;;-148.88;100.00;-17125.47;5033954;28;20083;-85
2023/08/13 08:05:42;;;;;;;9.07;2.85;;;;;;;-148.88;100.00;-17125.47;5034349;28;20033;-86
2023/08/13 08:08:10;;;;;;;9.45;2.70;;;;;;;-148.88;100.00;-17125.47;5033811;28;20029;-85
2023/08/13 08:10:36;;;;;;;8.18;2.35;;;;;;;-148.88;100.00;-17125.47;5034556;28;20026;-87
2023/08/13 08:13:04;;;;;;;8.52;2.63;;;;;;;-148.88;100.00;-17125.47;5032703;28;20167;-86
2023/08/13 08:15:30;;;;;;;5.88;2.30;;;;;;;-148.88;100.00;-17125.47;5032351;28;20492;-86
2023/08/13 08:17:55;;;;;;;7.25;2.58;;;;;;;-148.88;100.00;-17125.47;5032831;28;20040;-86
2023/08/13 08:20:22;;;;;;;6.00;2.20;;;;;;;-148.88;100.00;-17125.47;5032809;28;20033;-86
2023/08/13 08:22:47;;;;;;;7.70;2.33;;;;;;;-148.88;100.00;-17125.47;5033134;28;20036;-88
2023/08/13 08:25:12;;;;;;;7.95;1.98;;;;;;;-148.88;100.00;-17125.47;5032879;28;20021;-86
2023/08/13 08:27:38;;;;;;;5.97;2.08;;;;;;;-148.88;100.00;-17125.47;5032884;28;20036;-87
2023/08/13 08:30:04;;;;;;;6.70;2.10;;;;;;;-148.88;100.00;-17125.47;5037716;28;20029;-87
2023/08/13 08:32:30;;;;;;;5.95;2.13;;;;;;;-148.88;100.00;-17125.47;5033674;28;20048;-86
2023/08/13 08:35:05;;;;;;;5.88;2.15;;;;;;;-148.88;100.00;-17125.47;5034537;28;20075;-86
2023/08/13 08:37:32;;;;;;;6.38;2.03;;;;;;;-148.88;100.00;-17125.47;5034665;28;20025;-87
2023/08/13 08:40:04;;;;;;;5.63;2.00;;;;;;;-148.88;100.00;-17125.47;5031901;28;20460;-88
2023/08/13 08:42:30;;;;;;;7.88;2.10;;;;;;;-148.88;100.00;-17125.47;5032080;28;20029;-89
2023/08/13 08:45:00;;;;;;;7.07;1.98;;;;;;;-148.88;100.00;-17125.47;5031654;28;20479;-87
2023/08/13 08:47:29;;;;;;;6.10;1.90;;;;;;;-148.88;100.00;-17125.47;5032127;28;20028;-88
2023/08/13 08:49:56;;;;;;;8.25;1.88;;;;;;;-148.88;99.71;-17125.47;5032061;28;20018;-88
2023/08/13 08:52:21;;;;;;;7.18;1.90;;;;;;;-148.88;100.00;-17125.47;5032159;28;20112;-88
2023/08/13 08:54:48;;;;;;;8.00;1.73;;;;;;;-148.88;100.00;-17125.47;5031796;28;20444;-89
2023/08/13 08:57:14;;;;;;;7.47;2.00;;;;;;;-148.88;100.00;-17125.47;5031755;28;20025;-87
2023/08/13 08:59:39;;;;;;;6.22;1.73;;;;;;;-148.88;99.67;-17125.47;5031615;28;20388;-87
2023/08/13 09:02:05;;;;;;;6.05;1.88;;;;;;;-148.88;100.00;-17125.47;5031820;28;20029;-88
2023/08/13 09:04:30;;;;;;;7.13;1.92;;;;;;;-148.88;99.96;-17125.47;5032122;28;20013;-87
2023/08/13 09:07:01;;;;;;;4.43;1.75;;;;;;;-148.88;99.04;-17125.47;5032816;28;20041;-86
2023/08/13 09:09:28;;;;;;;5.90;1.80;;;;;;;-148.88;98.20;-17125.47;5033472;28;20033;-85
2023/08/13 09:11:54;;;;;;;5.10;1.65;;;;;;;-148.88;94.44;-17125.47;5036582;28;20112;-88
2023/08/13 09:14:24;;;;;;;4.15;1.58;;;;;;;-148.88;92.95;-17125.47;5036191;28;20030;-88
2023/08/13 09:16:55;;;;;;;6.63;1.65;;;;;;;-148.88;94.24;-17125.47;5036553;28;20053;-87
2023/08/13 09:19:24;;;;;;;4.45;1.52;;;;;;;-148.88;90.93;-17125.47;5035879;28;20486;-87
2023/08/13 09:21:59;;;;;;;4.53;1.35;;;;;;;-148.88;92.38;-17125.47;5035652;28;20112;-86
2023/08/13 09:24:39;;;;;;;8.10;1.83;;;;;;;-148.88;91.99;-17125.47;5037302;28;20525;-86
2023/08/13 09:27:07;;;;;;;5.43;1.50;;;;;;;-148.88;93.43;-17125.47;5037186;28;20033;-87
2023/08/13 09:29:33;;;;;;;4.95;1.77;;;;;;;-148.88;90.48;-17125.47;5035587;28;20437;-86
2023/08/13 09:31:59;;;;;;;3.50;1.10;;;;;;;-148.88;86.45;-17125.47;5037093;28;20111;-88
2023/08/13 09:34:26;;;;;;;4.25;1.20;;;;;;;-148.88;86.08;-17125.47;5036475;28;20507;-87
2023/08/13 09:36:55;;;;;;;5.30;1.30;;;;;;;-148.88;87.77;-17125.47;5036077;28;20026;-87
2023/08/13 09:39:25;;;;;;;3.28;1.40;;;;;;;-148.88;91.46;-17125.47;5036243;28;20422;-87
2023/08/13 09:41:51;;;;;;;6.18;1.52;;;;;;;-148.88;86.17;-17125.47;5035246;28;20381;-87
2023/08/13 09:44:25;;;;;;;7.70;1.75;;;;;;;-148.88;86.52;-17125.47;5036345;28;20025;-87
2023/08/13 09:46:56;;;;;;;5.25;1.55;;;;;;;-148.88;84.12;-17125.47;5036883;28;20079;-88
2023/08/13 09:49:22;;;;;;;4.95;1.33;;;;;;;-148.88;86.28;-17125.47;5035247;28;20423;-87
2023/08/13 09:51:51;;;;;;;3.65;1.23;;;;;;;-148.88;83.56;-17125.47;5035344;28;20060;-87
2023/08/13 09:54:28;;;;;;;2.92;1.00;;;;;;;-148.88;80.71;-17125.47;5035181;28;20116;-89
2023/08/13 09:57:00;;;;;;;4.32;1.30;;;;;;;-148.88;84.81;-17125.47;5034861;28;20105;-87
2023/08/13 09:59:27;;;;;;;5.70;1.30;;;;;;;-148.88;81.31;-17125.47;5035022;28;20049;-87
2023/08/13 10:01:54;;;;;;;2.03;1.00;;;;;;;-148.88;79.50;-17125.47;5034858;28;20053;-88
2023/08/13 10:04:21;;;;;;;3.60;1.10;;;;;;;-148.88;77.65;-17125.47;5036223;28;20017;-87
2023/08/13 10:06:50;;;;;;;2.67;0.90;;;;;;;-148.88;80.57;-17125.47;5035567;28;20373;-88
2023/08/13 10:09:16;;;;;;;3.92;1.00;;;;;;;-148.88;76.03;-17125.47;5035896;28;20029;-87
2023/08/13 10:11:41;;;;;;;3.05;0.90;;;;;;;-148.88;76.57;-17125.47;5035025;28;20030;-87
2023/08/13 10:14:07;;;;;;;4.32;1.20;;;;;;;-148.88;78.20;-17125.47;5035509;28;20174;-88
2023/08/13 10:16:33;;;;;;;4.43;1.17;;;;;;;-148.88;80.65;-17125.47;5035321;28;20113;-87
2023/08/13 10:19:01;;;;;;;3.67;1.05;;;;;;;-148.88;82.35;-17125.47;5034683;28;20025;-88
2023/08/13 10:21:35;;;;;;;4.50;1.08;;;;;;;-148.88;80.26;-17125.47;5034328;28;20112;-87
2023/08/13 10:24:11;;;;;;;4.25;1.40;;;;;;;-148.88;80.17;-17125.47;5034882;28;20022;-86
2023/08/13 10:26:41;;;;;;;3.60;1.00;;;;;;;-148.88;82.28;-17125.47;5035441;28;20028;-87
2023/08/13 10:29:20;;;;;;;4.25;1.23;;;;;;;-148.88;79.98;-17125.47;5034971;28;20017;-88
2023/08/13 10:31:59;;;;;;;5.05;1.40;;;;;;;-148.88;78.72;-17125.47;5035204;28;20029;-88
2023/08/13 10:34:50;;;;;;;5.00;1.02;;;;;;;-148.88;75.80;-17125.47;5034527;28;20025;-87
2023/08/13 10:37:20;;;;;;;4.00;1.08;;;;;;;-148.88;72.67;-17125.47;5034439;28;20377;-87
2023/08/13 10:40:18;;;;;;;4.03;1.38;;;;;;;-148.88;75.20;-17125.47;5035078;28;20034;-87
2023/08/13 10:42:46;;;;;;;2.33;0.95;;;;;;;-148.88;73.67;-17125.47;5036102;28;20061;-89
2023/08/13 10:45:15;;;;;;;4.80;1.20;;;;;;;-148.88;75.45;-17125.47;5036029;28;20109;-87
2023/08/13 10:47:47;;;;;;;5.20;1.13;;;;;;;-148.88;72.61;-17125.47;5035677;28;20017;-87
2023/08/13 10:50:26;;;;;;;3.47;1.10;;;;;;;-148.88;73.48;-17125.47;5034337;28;20056;-87
2023/08/13 10:52:52;;;;;;;3.45;1.10;;;;;;;-148.88;75.33;-17125.47;5034495;28;20025;-87
2023/08/13 10:55:21;;;;;;;4.90;1.10;;;;;;;-148.88;74.10;-17125.47;5034277;28;20060;-89
2023/08/13 10:57:56;;;;;;;4.55;1.08;;;;;;;-148.88;75.19;-17125.47;5035232;28;20025;-90